PAWGPAKT

Guest
Details From PAWG - WRANGELL
To PAKT - KETCHIKAN INTL
Flight Number -
Tags generated
Created
Modified
Stats Distance 74 nm / 138 km
Max Altitude 2,000 ft / 610 m
Waypoints 3
Social Downloads 0
Likes 0
Share VATSIM

Download

Looking for another format? Having issues loading an existing format? Contact us
Advertisement - Login to hide

Notes

Basic altitude profile: - Ascent Rate: 2500ft/min - Ascent Speed: 250kts - Cruise Altitude: 15000ft - Cruise Speed: 250kts - Descent Rate: 1500ft/min - Descent Speed: 250kts Options: - Use NATs: yes - Use PACOTS: yes - Use low airways: yes - Use high airways: yes

Route

PAWG GESTI PAKT

ID Type Via Altitude Latitude Longitude Leg Dist Tot Dist Heading (true) Name
O PAWG APT - 0 ft / 0 m 56.48432˚ -132.36983˚ - 0 nm - WRANGELL
GESTI FIX - 2,000 ft / 610 m 55.43263˚ -131.96400˚ 64 nm 64 nm 168° / 168° -
O PAKT APT - 0 ft / 0 m 55.35554˚ -131.71374˚ 9 nm 74 nm 118° / 119° KETCHIKAN INTL

Altitude Profile

Advertisement - Login to hide

PAWG

Details ICAO PAWG (WRG)
Name WRANGELL
Region USA (Alaska)
Timezone America/Juneau (UTC-9.0)
Stats Elevation 44 ft / 13 m (AMSL)
Location 56.484324° -132.369832°
Runways 1
Magnetic Variation 18.810° E

METAR

PAWG 131655Z 11010G15KT 10SM SCT035 OVC045 09/05 A3039

Decode

TAF

PAWG 131140Z 1312/1412 06007KT P6SM -RA SCT030 BKN050 OVC060 FM132100 12008KT P6SM -RA OVC040 WS020/15035KT FM140400 12012G22KT 6SM -RA BR OVC040 WS020/15040KT FM140900 12018G28KT 5SM RA BR OVC040 WS020/15045KT AMD LTD TO CLD VIS AND WIND 1312/1315

Decode

Departure Runways

ID Width Length Bearing (true) Bearing (mag) Surface Threshold Offset Overrun Length
10 150 ft / 46 m 5,983 ft / 1,824 m 121.43° 102.62° Asphalt 0 ft / 0 m 0 ft / 0 m
28 150 ft / 46 m 5,983 ft / 1,824 m 301.45° 282.64° Asphalt 0 ft / 0 m 0 ft / 0 m

PAKT

Details ICAO PAKT (KTN)
Name KETCHIKAN INTL
Region USA (Alaska)
Timezone Unknown (UTC+0.0)
Stats Elevation 88 ft / 27 m (AMSL)
Location 55.355545° -131.713737°
Runways 1
Magnetic Variation 18.534° E

METAR

PAKT 131653Z 15010KT 7SM -RA OVC018 08/07 A3040

Decode

TAF

PAKT 131140Z 1312/1412 14013KT 1 1/2SM RA BR FEW007 BKN013 OVC019 WS020/16035KT FM131700 15010KT 3SM BR VCSH BKN015 OVC035 FM132200 15013KT 5SM BR SCT015 OVC025 WS020/16040KT FM140600 14015G25KT 3SM BR BKN025 OVC040 WS020/16050KT AMD LTD TO CLD VIS AND WIND 1312/1315

Decode

Destination Runways

ID Width Length Bearing (true) Bearing (mag) Surface Threshold Offset Overrun Length
11 150 ft / 46 m 7,485 ft / 2,281 m 135.66° 117.13° Asphalt 0 ft / 0 m 200 ft / 61 m
29 150 ft / 46 m 7,485 ft / 2,281 m 315.68° 297.15° Asphalt 0 ft / 0 m 100 ft / 30 m

Approach Navaids

Runway Type Ident Frequency Range Bearing (true) Bearing (mag) Slope Elevation
11 Localiser IECH 109.30 MHz 18 nm / 33 km 135.69° 117.15° - 66 ft / 20 m (AMSL)
11 Glidescope IECH 109.30 MHz 10 nm / 19 km 135.67° 117.14° 3.61° 76 ft / 23 m (AMSL)
11 DME IECH 109.30 MHz 18 nm / 33 km - - - 98 ft / 30 m (AMSL)

Popular Alternatives